ADDS METAR Data INFO
IDs: Format: Raw Decoded Include TAF

Data at: 2145 UTC 15 Dec 2017

KBRO 152053Z 32014G19KT 10SM OVC026 10/07 A3025 RMK AO2 RAE07B35E52 SLP242 P0000 60000 T01000067 56017
KBRO 152037Z 33014G21KT 10SM -RA OVC028 11/07 A3024 RMK AO2 RAE07B35 P0000 T01060067
KBRO 151953Z 31014G21KT 10SM -RA SCT037 OVC049 11/07 A3025 RMK AO2 PK WND 31026/1854 RAB32 SLP243 P0000 T01060072
KBRO 151853Z 32017G23KT 10SM OVC050 12/07 A3026 RMK AO2 PRESFR SLP245 T01170067
KBRO 151753Z 32013G22KT 10SM OVC044 12/07 A3030 RMK AO2 SLP259 60000 T01220067 10139 20106 50018
KBRO 151653Z 32013G22KT 10SM FEW035 OVC060 11/07 A3030 RMK AO2 RAB35E52 SLP260 P0000 T01110067
KBRO 151553Z 32010G23KT 10SM BKN060 OVC080 11/07 A3028 RMK AO2 RAE30 SLP254 P0000 T01110072
KBRO 151453Z 34012G21KT 10SM -RA BKN060 OVC085 11/08 A3025 RMK AO2 RAB35 SLP242 P0000 60000 T01110078 51043
KBRO 151353Z 35014G21KT 10SM FEW043 SCT060 OVC080 12/08 A3021 RMK AO2 SLP229 T01220083
KBRO 151253Z 34012KT 10SM FEW060 OVC080 13/10 A3017 RMK AO2 SLP214 T01330100
KBRO 151153Z 35011G19KT 10SM FEW031 OVC085 14/11 A3012 RMK AO2 SLP199 60000 T01390106 10183 20139 53026 $
KBRO 151125Z 36013G19KT 10SM SCT027 OVC085 14/11 A3009 RMK AO2 T01440111 $
KBRO 151105Z AUTO 36011G19KT 10SM BKN027 BKN100 14/11 A3008 RMK AO2 T01440111 $
KBRO 151053Z AUTO 36010G23KT 10SM FEW025 SCT031 BKN100 14/11 A3008 RMK AO2 SLP183 T01440111 $
KBRO 150953Z AUTO 35015G22KT 10SM CLR 16/12 A3005 RMK AO2 SLP173 T01560117 $
KBRO 150853Z AUTO 34011KT 10SM BKN033 BKN100 17/15 A3005 RMK AO2 SLP173 60000 T01720150 53003 $
KBRO 150753Z AUTO 32009KT 10SM SCT065 BKN110 17/15 A3004 RMK AO2 SLP171 T01720150 $
KBRO 150713Z AUTO 31009KT 10SM SCT027 OVC060 18/16 A3004 RMK AO2 T01780156 $
KBRO 150653Z AUTO 32008KT 10SM OVC026 18/16 A3004 RMK AO2 RAE33 SLP171 P0000 T01830156 $
KBRO 150553Z 31005KT 10SM -RA OVC024 18/16 A3004 RMK AO2 RAB48 SLP169 P0000 60000 T01830156 10200 20178 402560111 53021 $
KBRO 150529Z 32004KT 10SM BKN027 BKN033 18/16 A3002 RMK AO2 T01830161 $
KBRO 150505Z 34003KT 10SM SCT025 BKN032 BKN044 18/17 A3002 RMK AO2 T01830167 $
KBRO 150453Z 01003KT 10SM BKN027 BKN033 OVC040 18/17 A3000 RMK AO2 SLP158 T01830167 $
KBRO 150442Z 32005KT 10SM BKN027 BKN033 BKN040 18/17 A3002 RMK AO2 T01830167 $
KBRO 150353Z 04005KT 10SM BKN035 BKN042 19/17 A2999 RMK AO2 SLP155 T01890167 $
KBRO 150253Z 00000KT 10SM CLR 18/16 A2997 RMK AO2 SLP149 T01830161 50014 $
KBRO 150153Z 35006KT 10SM CLR 18/16 A2998 RMK AO2 SLP150 T01830161 $
KBRO 150053Z 33004KT 10SM CLR 19/17 A2996 RMK AO2 SLP145 T01890167 $
KBRO 142353Z 08006KT 10SM CLR 20/16 A2993 RMK AO2 SLP135 60000 T02000161 10256 20200 $
KBRO 142253Z 00000KT 10SM CLR 24/15 A2992 RMK AO2 SLP129 T02390150 $
KBRO 142154Z 16007KT 25/14 A2991 RMK AO2 SLP126 T02500144 $
KBRO 142053Z 18011KT 10SM CLR 25/15 A2990 RMK AO2 SLP125 60000 T02500150 56014
KBRO 141953Z VRB04KT 10SM CLR 24/15 A2991 RMK AO2 SLP127 T02390150
KBRO 141853Z 17006KT 10SM CLR 22/14 A2992 RMK AO2 RAB00E10 SLP129 P0000 T02170144
KBRO 141753Z 18009KT 10SM BKN110 21/14 A2995 RMK AO2 PRESFR SLP139 T02110139 10211 20111 58013
KBRO 141653Z 20010KT 10SM FEW110 21/13 A2998 RMK AO2 SLP152 T02110133
KBRO 141553Z 19009KT 10SM CLR 19/13 A2998 RMK AO2 SLP150 T01940133
KBRO 141453Z 22007KT 10SM CLR 17/12 A2998 RMK AO2 SLP152 T01720122 53021
KBRO 141353Z 00000KT 10SM CLR 15/13 A2996 RMK AO2 SLP144 T01500133
KBRO 141253Z 00000KT 10SM CLR 12/12 A2994 RMK AO2 SLP136 T01220122
KBRO 141215Z 20004KT 3SM BR CLR 12/11 A2992 RMK AO2 T01170106
KBRO 141206Z 18004KT 1 3/4SM BR CLR 11/11 A2991 RMK AO2 VIS 1V5 T01110106 $
KBRO 141153Z AUTO 00000KT 9SM CLR 12/12 A2992 RMK AO2 SLP130 T01220117 10144 20111 55001 $
KBRO 141053Z AUTO 00000KT 10SM CLR 11/11 A2992 RMK AO2 SLP129 T01110106 $
KBRO 140953Z AUTO 00000KT 10SM CLR 12/12 A2991 RMK AO2 SLP128 T01220117 $